createdAt,value
2019-04-01T00:00:40.113Z,931.76
2019-04-01T00:01:40.054Z,931.73
2019-04-01T00:02:40.012Z,931.74
2019-04-01T00:03:39.975Z,931.77
2019-04-01T00:04:39.908Z,931.78
2019-04-01T00:05:39.876Z,931.75
2019-04-01T00:06:39.839Z,931.81
2019-04-01T00:07:39.779Z,931.76
2019-04-01T00:08:39.738Z,931.77
2019-04-01T00:09:39.701Z,931.78
2019-04-01T00:10:39.634Z,931.78
2019-04-01T00:11:39.609Z,931.77
2019-04-01T00:12:39.555Z,931.79
2019-04-01T00:13:39.498Z,931.77
2019-04-01T00:14:39.451Z,931.77
2019-04-01T00:15:39.432Z,931.73
2019-04-01T00:16:39.359Z,931.71
2019-04-01T00:17:39.335Z,931.73
2019-04-01T00:18:39.268Z,931.76
2019-04-01T00:19:39.235Z,931.79
2019-04-01T00:20:39.197Z,931.84
2019-04-01T00:21:39.139Z,931.84
2019-04-01T00:22:39.173Z,931.83
2019-04-01T00:23:39.039Z,931.84
2019-04-01T00:24:39.002Z,931.85
2019-04-01T00:25:38.969Z,931.82
2019-04-01T00:26:38.913Z,931.80
2019-04-01T00:27:38.878Z,931.83
2019-04-01T00:28:38.811Z,931.89
2019-04-01T00:29:38.764Z,931.85
2019-04-01T00:30:38.734Z,931.86
2019-04-01T00:31:38.673Z,931.89
2019-04-01T00:32:38.640Z,931.87
2019-04-01T00:33:38.591Z,931.92
2019-04-01T00:34:38.548Z,931.95
2019-04-01T00:35:38.512Z,932.00
2019-04-01T00:36:38.465Z,932.00
2019-04-01T00:37:38.408Z,931.97
2019-04-01T00:38:38.366Z,932.02
2019-04-01T00:39:38.309Z,932.01
2019-04-01T00:40:38.353Z,932.00
2019-04-01T00:41:38.238Z,932.02
2019-04-01T00:42:38.183Z,932.07
2019-04-01T00:43:38.145Z,932.06
2019-04-01T00:44:40.364Z,932.06
2019-04-01T00:45:38.041Z,932.11
2019-04-01T00:46:37.995Z,932.11
2019-04-01T00:47:37.968Z,932.14
2019-04-01T00:48:37.904Z,932.16
2019-04-01T00:49:37.858Z,932.19
2019-04-01T00:50:37.812Z,932.15
2019-04-01T00:51:37.779Z,932.18
2019-04-01T00:52:37.728Z,932.15
2019-04-01T00:53:37.666Z,932.12
2019-04-01T00:54:37.634Z,932.08
2019-04-01T00:55:37.589Z,932.11
2019-04-01T00:56:37.542Z,932.08
2019-04-01T00:57:37.492Z,932.11
2019-04-01T00:58:37.450Z,932.13
2019-04-01T00:59:37.416Z,932.11
2019-04-01T01:00:37.368Z,932.12
2019-04-01T01:01:37.338Z,932.14
2019-04-01T01:02:37.266Z,932.16
2019-04-01T01:03:37.221Z,932.11
2019-04-01T01:04:37.174Z,932.17
2019-04-01T01:05:37.141Z,932.17
2019-04-01T01:06:37.081Z,932.23
2019-04-01T01:07:37.026Z,932.21
2019-04-01T01:08:36.991Z,932.18
2019-04-01T01:09:36.943Z,932.20
2019-04-01T01:10:36.889Z,932.15
2019-04-01T01:11:36.851Z,932.24
2019-04-01T01:12:36.805Z,932.18
2019-04-01T01:13:36.772Z,932.25
2019-04-01T01:14:36.714Z,932.21
2019-04-01T01:15:36.660Z,932.24
2019-04-01T01:16:37.180Z,932.23
2019-04-01T01:17:36.568Z,932.20
2019-04-01T01:18:36.534Z,932.23
2019-04-01T01:19:36.498Z,932.15
2019-04-01T01:20:36.440Z,932.13
2019-04-01T01:21:36.384Z,932.08
2019-04-01T01:22:36.347Z,932.10
2019-04-01T01:23:36.303Z,932.09
2019-04-01T01:24:36.255Z,932.07
2019-04-01T01:25:36.216Z,932.11
2019-04-01T01:26:36.179Z,932.08
2019-04-01T01:27:36.131Z,932.07
2019-04-01T01:28:36.084Z,932.07
2019-04-01T01:29:36.039Z,932.08
2019-04-01T01:30:35.984Z,932.07
2019-04-01T01:31:35.958Z,932.09
2019-04-01T01:32:35.904Z,932.05
2019-04-01T01:33:35.846Z,932.09
2019-04-01T01:34:35.888Z,932.08
2019-04-01T01:35:35.765Z,932.08
2019-04-01T01:36:35.724Z,932.11
2019-04-01T01:37:35.664Z,932.05
2019-04-01T01:38:35.617Z,932.07
2019-04-01T01:39:35.581Z,932.08
2019-04-01T01:40:35.521Z,932.09
2019-04-01T01:41:35.488Z,932.06
2019-04-01T01:42:35.434Z,932.02
2019-04-01T01:43:35.389Z,932.02
2019-04-01T01:44:35.342Z,932.03
2019-04-01T01:45:35.292Z,931.99
2019-04-01T01:46:35.259Z,932.03
2019-04-01T01:47:35.207Z,931.96
2019-04-01T01:48:35.146Z,931.96
2019-04-01T01:49:35.113Z,931.93
2019-04-01T01:50:35.077Z,931.90
2019-04-01T01:51:35.029Z,931.88
2019-04-01T01:52:34.971Z,931.82
2019-04-01T01:53:34.919Z,931.80
2019-04-01T01:54:34.883Z,931.76
2019-04-01T01:55:34.825Z,931.77
2019-04-01T01:56:34.787Z,931.72
2019-04-01T01:57:34.756Z,931.73
2019-04-01T01:58:34.687Z,931.73
2019-04-01T01:59:34.649Z,931.66
2019-04-01T02:00:34.598Z,931.64
2019-04-01T02:01:34.562Z,931.62
2019-04-01T02:02:34.525Z,931.61
2019-04-01T02:03:34.470Z,931.58
2019-04-01T02:04:34.433Z,931.60
2019-04-01T02:05:34.388Z,931.57
2019-04-01T02:06:34.328Z,931.58
2019-04-01T02:07:34.274Z,931.60
2019-04-01T02:08:34.229Z,931.61
2019-04-01T02:09:34.182Z,931.55
2019-04-01T02:10:34.157Z,931.54
2019-04-01T02:11:34.111Z,931.50
2019-04-01T02:12:34.055Z,931.52
2019-04-01T02:13:34.000Z,931.52
2019-04-01T02:14:33.966Z,931.52
2019-04-01T02:15:33.917Z,931.52
2019-04-01T02:16:33.860Z,931.61
2019-04-01T02:17:33.837Z,931.55
2019-04-01T02:18:33.770Z,931.65
2019-04-01T02:19:33.723Z,931.66
2019-04-01T02:20:33.676Z,931.65
2019-04-01T02:21:33.644Z,931.66
2019-04-01T02:22:33.594Z,931.67
2019-04-01T02:23:33.559Z,931.62
2019-04-01T02:24:33.506Z,931.63
2019-04-01T02:25:33.468Z,931.63
2019-04-01T02:26:33.421Z,931.63
2019-04-01T02:27:33.376Z,931.62
2019-04-01T02:28:33.317Z,931.65
2019-04-01T02:29:33.283Z,931.59
2019-04-01T02:30:33.230Z,931.59
2019-04-01T02:31:33.185Z,931.65
2019-04-01T02:32:33.127Z,931.60
2019-04-01T02:33:33.087Z,931.62
2019-04-01T02:34:33.073Z,931.59
2019-04-01T02:35:33.001Z,931.58
2019-04-01T02:36:32.961Z,931.61
2019-04-01T02:37:32.895Z,931.62
2019-04-01T02:38:32.848Z,931.60
2019-04-01T02:39:32.824Z,931.65
2019-04-01T02:40:32.770Z,931.64
2019-04-01T02:41:32.731Z,931.65
2019-04-01T02:42:32.667Z,931.65
2019-04-01T02:43:32.617Z,931.58
2019-04-01T02:44:32.572Z,931.60
2019-04-01T02:45:32.526Z,931.59
2019-04-01T02:46:32.508Z,931.60
2019-04-01T02:47:32.444Z,931.56
2019-04-01T02:48:32.388Z,931.54
2019-04-01T02:49:32.354Z,931.56
2019-04-01T02:50:32.308Z,931.54
2019-04-01T02:51:32.250Z,931.54
2019-04-01T02:52:32.218Z,931.53
2019-04-01T02:53:32.180Z,931.54
2019-04-01T02:54:32.128Z,931.56
2019-04-01T02:55:32.087Z,931.58
2019-04-01T02:56:32.034Z,931.62
2019-04-01T02:57:32.119Z,931.58
2019-04-01T02:58:31.948Z,931.65
2019-04-01T02:59:31.903Z,931.66
2019-04-01T03:00:31.858Z,931.63
2019-04-01T03:01:31.811Z,931.57
2019-04-01T03:02:31.744Z,931.55
2019-04-01T03:03:31.713Z,931.54
2019-04-01T03:04:31.674Z,931.46
2019-04-01T03:05:31.619Z,931.43
2019-04-01T03:06:31.567Z,931.43
2019-04-01T03:07:31.582Z,931.40
2019-04-01T03:08:31.477Z,931.41
2019-04-01T03:09:31.429Z,931.43
2019-04-01T03:10:31.375Z,931.46
2019-04-01T03:11:31.359Z,931.43
2019-04-01T03:12:31.299Z,931.41
2019-04-01T03:13:31.252Z,931.37
2019-04-01T03:14:31.217Z,931.35
2019-04-01T03:15:31.155Z,931.34
2019-04-01T03:16:31.143Z,931.31
2019-04-01T03:17:31.067Z,931.27
2019-04-01T03:18:31.017Z,931.29
2019-04-01T03:19:30.972Z,931.25
2019-04-01T03:20:30.931Z,931.21
2019-04-01T03:21:30.869Z,931.20
2019-04-01T03:22:30.831Z,931.15
2019-04-01T03:23:30.777Z,931.16
2019-04-01T03:24:30.751Z,931.17
2019-04-01T03:25:30.699Z,931.20
2019-04-01T03:26:30.647Z,931.16
2019-04-01T03:27:30.614Z,931.17
2019-04-01T03:28:30.559Z,931.16
2019-04-01T03:29:30.523Z,931.16
2019-04-01T03:30:30.549Z,931.20
2019-04-01T03:31:30.421Z,931.18
2019-04-01T03:32:30.376Z,931.16
2019-04-01T03:33:30.330Z,931.19
2019-04-01T03:34:30.278Z,931.19
2019-04-01T03:35:30.243Z,931.15
2019-04-01T03:36:30.202Z,931.13
2019-04-01T03:37:30.133Z,931.12
2019-04-01T03:38:30.099Z,931.08
2019-04-01T03:39:30.063Z,931.08
2019-04-01T03:40:30.004Z,931.06
2019-04-01T03:41:29.976Z,931.04
2019-04-01T03:42:29.912Z,931.07
2019-04-01T03:43:29.879Z,931.06
2019-04-01T03:44:29.972Z,931.03
2019-04-01T03:45:29.785Z,931.05
2019-04-01T03:46:29.732Z,931.02
2019-04-01T03:47:29.706Z,931.00
2019-04-01T03:48:29.627Z,930.94
2019-04-01T03:49:29.581Z,930.94
2019-04-01T03:50:29.545Z,930.95
2019-04-01T03:51:29.509Z,930.97
2019-04-01T03:52:29.455Z,930.95
2019-04-01T03:53:29.406Z,930.94
2019-04-01T03:54:29.359Z,930.90
2019-04-01T03:55:29.365Z,930.91
2019-04-01T03:56:29.279Z,930.95
2019-04-01T03:57:29.233Z,930.93
2019-04-01T03:58:29.276Z,930.99
2019-04-01T03:59:29.120Z,930.97
2019-04-01T04:00:29.084Z,930.97
2019-04-01T04:01:30.532Z,930.97
2019-04-01T04:02:28.990Z,930.98
2019-04-01T04:03:28.974Z,930.98
2019-04-01T04:04:28.899Z,931.00
2019-04-01T04:05:28.866Z,931.04
2019-04-01T04:06:28.831Z,931.01
2019-04-01T04:07:28.764Z,931.02
2019-04-01T04:08:28.715Z,931.07
2019-04-01T04:09:28.826Z,931.05
2019-04-01T04:10:28.661Z,931.06
2019-04-01T04:11:28.581Z,931.07
2019-04-01T04:12:28.535Z,931.14
2019-04-01T04:13:28.490Z,931.13
2019-04-01T04:14:28.444Z,931.18
2019-04-01T04:15:28.407Z,931.17
2019-04-01T04:16:28.363Z,931.16
2019-04-01T04:17:28.401Z,931.14
2019-04-01T04:18:28.251Z,931.14
2019-04-01T04:19:28.270Z,931.15
2019-04-01T04:20:28.174Z,931.14
2019-04-01T04:21:28.123Z,931.10
2019-04-01T04:22:28.085Z,931.11
2019-04-01T04:23:28.029Z,931.08
2019-04-01T04:24:27.983Z,931.07
2019-04-01T04:25:27.949Z,931.02
2019-04-01T04:26:27.880Z,930.99
2019-04-01T04:27:27.840Z,931.00
2019-04-01T04:28:27.868Z,931.01
2019-04-01T04:29:27.760Z,931.03
2019-04-01T04:30:27.716Z,931.03
2019-04-01T04:31:27.702Z,931.02
2019-04-01T04:32:27.613Z,930.95
2019-04-01T04:33:27.555Z,930.95
2019-04-01T04:34:27.531Z,930.88
2019-04-01T04:35:27.481Z,930.89
2019-04-01T04:36:27.435Z,930.86
2019-04-01T04:37:27.380Z,930.87
2019-04-01T04:38:27.338Z,930.88
2019-04-01T04:39:27.307Z,930.85
2019-04-01T04:40:27.232Z,930.85
2019-04-01T04:41:27.199Z,930.87
2019-04-01T04:42:27.155Z,930.83
2019-04-01T04:43:27.103Z,930.82
2019-04-01T04:44:27.064Z,930.81
2019-04-01T04:45:27.002Z,930.83
2019-04-01T04:46:26.965Z,930.84
2019-04-01T04:47:26.926Z,930.80
2019-04-01T04:48:26.902Z,930.79
2019-04-01T04:49:26.839Z,930.73
2019-04-01T04:50:26.780Z,930.77
2019-04-01T04:51:26.746Z,930.71
2019-04-01T04:52:26.700Z,930.72
2019-04-01T04:53:26.654Z,930.71
2019-04-01T04:54:26.610Z,930.70
2019-04-01T04:55:26.545Z,930.70
2019-04-01T04:56:26.522Z,930.68
2019-04-01T04:57:26.482Z,930.64
2019-04-01T04:58:26.424Z,930.67
2019-04-01T04:59:26.370Z,930.65
2019-04-01T05:00:26.346Z,930.62
2019-04-01T05:01:26.297Z,930.61
2019-04-01T05:02:26.232Z,930.62
2019-04-01T05:03:26.218Z,930.66
2019-04-01T05:04:26.144Z,930.65
2019-04-01T05:05:26.102Z,930.65
2019-04-01T05:06:26.069Z,930.66
2019-04-01T05:07:26.008Z,930.62
2019-04-01T05:08:25.962Z,930.64
2019-04-01T05:09:25.930Z,930.60
2019-04-01T05:10:25.871Z,930.60
2019-04-01T05:11:25.833Z,930.59
2019-04-01T05:12:25.784Z,930.57
2019-04-01T05:13:25.731Z,930.54
2019-04-01T05:14:25.691Z,930.52
2019-04-01T05:15:25.656Z,930.49
2019-04-01T05:16:25.593Z,930.48
2019-04-01T05:17:25.549Z,930.42
2019-04-01T05:18:25.506Z,930.43
2019-04-01T05:19:25.455Z,930.41
2019-04-01T05:20:25.406Z,930.40
2019-04-01T05:21:25.422Z,930.43
2019-04-01T05:22:25.316Z,930.47
2019-04-01T05:23:25.270Z,930.41
2019-04-01T05:24:25.224Z,930.51
2019-04-01T05:25:25.170Z,930.51
2019-04-01T05:26:25.132Z,930.49
2019-04-01T05:27:25.085Z,930.49
2019-04-01T05:28:25.032Z,930.45
2019-04-01T05:29:24.994Z,930.45
2019-04-01T05:30:24.940Z,930.47
2019-04-01T05:31:24.895Z,930.44
2019-04-01T05:32:24.850Z,930.44
2019-04-01T05:33:24.790Z,930.41
2019-04-01T05:34:24.764Z,930.42
2019-04-01T05:35:24.721Z,930.39
2019-04-01T05:36:24.667Z,930.40
2019-04-01T05:37:24.577Z,930.42
2019-04-01T05:38:24.571Z,930.47
2019-04-01T05:39:24.535Z,930.41
2019-04-01T05:40:24.487Z,930.41
2019-04-01T05:41:24.433Z,930.40
2019-04-01T05:42:24.395Z,930.41
2019-04-01T05:43:24.336Z,930.43
2019-04-01T05:44:24.307Z,930.41
2019-04-01T05:45:24.236Z,930.39
2019-04-01T05:46:24.190Z,930.38
2019-04-01T05:47:43.370Z,930.36
2019-04-01T05:48:24.133Z,930.37
2019-04-01T05:49:24.066Z,930.33
2019-04-01T05:50:24.041Z,930.33
2019-04-01T05:51:23.975Z,930.36
2019-04-01T05:52:24.185Z,930.36
2019-04-01T05:53:23.888Z,930.36
2019-04-01T05:54:23.842Z,930.35
2019-04-01T05:55:23.796Z,930.33
2019-04-01T05:56:23.756Z,930.35
2019-04-01T05:57:23.697Z,930.38
2019-04-01T05:58:23.663Z,930.37
2019-04-01T05:59:23.604Z,930.38
2019-04-01T06:00:23.558Z,930.37
2019-04-01T06:01:23.521Z,930.41
2019-04-01T06:02:23.473Z,930.36
2019-04-01T06:03:23.427Z,930.37
2019-04-01T06:04:23.381Z,930.30
2019-04-01T06:05:23.334Z,930.23
2019-04-01T06:06:23.277Z,930.22
2019-04-01T06:07:23.292Z,930.19
2019-04-01T06:08:23.197Z,930.14
2019-04-01T06:09:23.151Z,930.19
2019-04-01T06:10:23.092Z,930.16
2019-04-01T06:11:23.075Z,930.18
2019-04-01T06:12:24.220Z,930.21
2019-04-01T06:13:22.972Z,930.25
2019-04-01T06:14:22.887Z,930.25
2019-04-01T06:15:22.866Z,930.23
2019-04-01T06:16:22.843Z,930.26
2019-04-01T06:17:22.782Z,930.27
2019-04-01T06:18:22.736Z,930.28
2019-04-01T06:19:22.690Z,930.28
2019-04-01T06:20:22.644Z,930.30
2019-04-01T06:21:22.605Z,930.26
2019-04-01T06:22:22.555Z,930.26
2019-04-01T06:23:22.506Z,930.30
2019-04-01T06:24:24.733Z,930.25
2019-04-01T06:25:22.422Z,930.27
2019-04-01T06:26:22.365Z,930.27
2019-04-01T06:27:22.758Z,930.26
2019-04-01T06:28:22.269Z,930.26
2019-04-01T06:29:22.235Z,930.24
2019-04-01T06:30:22.176Z,930.25
2019-04-01T06:31:22.137Z,930.25
2019-04-01T06:32:22.091Z,930.23
2019-04-01T06:33:22.033Z,930.19
2019-04-01T06:34:21.999Z,930.13
2019-04-01T06:35:21.961Z,930.10
2019-04-01T06:36:21.900Z,930.05
2019-04-01T06:37:21.843Z,930.01
2019-04-01T06:38:21.800Z,930.08
2019-04-01T06:39:21.756Z,930.04
2019-04-01T06:40:21.701Z,930.07
2019-04-01T06:41:21.655Z,930.11
2019-04-01T06:42:21.617Z,930.13
2019-04-01T06:43:21.575Z,930.12
2019-04-01T06:44:21.526Z,930.08
2019-04-01T06:45:21.483Z,930.13
2019-04-01T06:46:21.433Z,930.11
2019-04-01T06:47:21.399Z,930.13
2019-04-01T06:48:21.340Z,930.17
2019-04-01T06:49:21.299Z,930.12
2019-04-01T06:50:21.261Z,930.09
2019-04-01T06:51:21.195Z,930.11
2019-04-01T06:52:21.169Z,930.07
2019-04-01T06:53:21.117Z,930.08
2019-04-01T06:54:21.068Z,930.09
2019-04-01T06:55:21.022Z,930.11
2019-04-01T06:56:20.963Z,930.10
2019-04-01T06:57:20.938Z,930.08
2019-04-01T06:58:20.883Z,930.05
2019-04-01T06:59:20.835Z,930.02
2019-04-01T07:00:20.799Z,929.99
2019-04-01T07:01:20.745Z,929.96
2019-04-01T07:02:20.695Z,929.94
2019-04-01T07:03:20.662Z,929.92
2019-04-01T07:04:20.612Z,929.88
2019-04-01T07:05:20.569Z,929.88
2019-04-01T07:06:20.509Z,929.91
2019-04-01T07:07:20.476Z,929.91
2019-04-01T07:08:20.421Z,929.93
2019-04-01T07:09:20.376Z,929.95
2019-04-01T07:10:20.337Z,929.97
2019-04-01T07:11:20.317Z,929.97
2019-04-01T07:12:20.224Z,930.02
2019-04-01T07:13:20.178Z,930.04
2019-04-01T07:14:20.152Z,930.09
2019-04-01T07:15:20.108Z,930.05
2019-04-01T07:16:20.060Z,930.08
2019-04-01T07:17:20.019Z,930.05
2019-04-01T07:18:19.956Z,930.00
2019-04-01T07:19:19.900Z,929.97
2019-04-01T07:20:19.854Z,929.96
2019-04-01T07:21:19.820Z,929.98
2019-04-01T07:22:19.761Z,929.95
2019-04-01T07:23:19.738Z,929.97
2019-04-01T07:24:19.678Z,929.97
2019-04-01T07:25:19.636Z,930.02
2019-04-01T07:26:21.011Z,930.03
2019-04-01T07:27:19.557Z,930.01
2019-04-01T07:28:19.518Z,930.02
2019-04-01T07:29:19.472Z,930.02
2019-04-01T07:30:19.412Z,930.04
2019-04-01T07:31:19.366Z,930.05
2019-04-01T07:32:19.314Z,930.07
2019-04-01T07:33:19.279Z,930.04
2019-04-01T07:34:19.233Z,930.09
2019-04-01T07:35:19.180Z,930.07
2019-04-01T07:36:19.136Z,930.09
2019-04-01T07:37:19.089Z,930.05
2019-04-01T07:38:19.034Z,930.06
2019-04-01T07:39:18.977Z,930.03
2019-04-01T07:40:18.943Z,930.01
2019-04-01T07:41:18.912Z,930.01
2019-04-01T07:42:18.857Z,930.02
2019-04-01T07:43:18.811Z,930.05
2019-04-01T07:44:18.771Z,930.10
2019-04-01T07:45:18.710Z,930.12
2019-04-01T07:46:18.672Z,930.09
2019-04-01T07:47:18.627Z,930.07
2019-04-01T07:48:18.585Z,930.08
2019-04-01T07:49:18.537Z,930.08
2019-04-01T07:50:18.475Z,930.04
2019-04-01T07:51:18.486Z,930.05
2019-04-01T07:52:18.386Z,930.02
2019-04-01T07:53:18.348Z,930.06
2019-04-01T07:54:18.698Z,930.05
2019-04-01T07:55:18.256Z,930.13
2019-04-01T07:56:18.201Z,930.09
2019-04-01T07:57:18.161Z,930.07
2019-04-01T07:58:21.774Z,930.09
2019-04-01T07:59:18.076Z,930.09
2019-04-01T08:00:18.031Z,930.09
2019-04-01T08:01:17.991Z,930.11
2019-04-01T08:02:17.922Z,930.12
2019-04-01T08:03:17.899Z,930.06
2019-04-01T08:04:17.851Z,930.13
2019-04-01T08:05:17.807Z,930.10
2019-04-01T08:06:17.746Z,930.15
2019-04-01T08:07:17.702Z,930.13
2019-04-01T08:08:17.648Z,930.13
2019-04-01T08:09:17.603Z,930.12
2019-04-01T08:10:17.562Z,930.13
2019-04-01T08:11:17.518Z,930.16
2019-04-01T08:12:17.456Z,930.11
2019-04-01T08:13:17.434Z,930.13
2019-04-01T08:14:17.368Z,930.15
2019-04-01T08:15:17.344Z,930.12
2019-04-01T08:16:17.298Z,930.11
2019-04-01T08:17:17.250Z,930.18
2019-04-01T08:18:17.195Z,930.16
2019-04-01T08:19:17.159Z,930.21
2019-04-01T08:20:17.097Z,930.20
2019-04-01T08:21:17.046Z,930.20
2019-04-01T08:22:17.026Z,930.21
2019-04-01T08:23:16.972Z,930.18
2019-04-01T08:24:16.912Z,930.21
2019-04-01T08:25:16.857Z,930.19
2019-04-01T08:26:16.806Z,930.21
2019-04-01T08:27:16.752Z,930.23
2019-04-01T08:28:16.714Z,930.19
2019-04-01T08:29:29.393Z,930.23
2019-04-01T08:30:16.636Z,930.24
2019-04-01T08:31:16.579Z,930.26
2019-04-01T08:32:16.541Z,930.30
2019-04-01T08:33:16.474Z,930.30
2019-04-01T08:34:16.442Z,930.25
2019-04-01T08:35:16.393Z,930.32
2019-04-01T08:36:16.334Z,930.33
2019-04-01T08:37:16.290Z,930.33
2019-04-01T08:38:16.250Z,930.34
2019-04-01T08:39:16.217Z,930.36
2019-04-01T08:40:16.158Z,930.32
2019-04-01T08:41:16.124Z,930.30
2019-04-01T08:42:16.065Z,930.28
2019-04-01T08:43:16.023Z,930.23
2019-04-01T08:44:15.976Z,930.23
2019-04-01T08:45:15.931Z,930.23
2019-04-01T08:46:15.884Z,930.19
2019-04-01T08:47:15.838Z,930.28
2019-04-01T08:48:15.787Z,930.32
2019-04-01T08:49:15.745Z,930.33
2019-04-01T08:50:15.695Z,930.37
2019-04-01T08:51:15.648Z,930.36
2019-04-01T08:52:15.602Z,930.35
2019-04-01T08:53:15.547Z,930.32
2019-04-01T08:54:15.522Z,930.33
2019-04-01T08:55:15.475Z,930.35
2019-04-01T08:56:15.409Z,930.35
2019-04-01T08:57:15.383Z,930.40
2019-04-01T08:58:15.315Z,930.39
2019-04-01T08:59:15.279Z,930.39
2019-04-01T09:00:15.285Z,930.38
2019-04-01T09:01:15.197Z,930.34
2019-04-01T09:02:17.986Z,930.35
2019-04-01T09:03:15.105Z,930.37
2019-04-01T09:04:15.058Z,930.38
2019-04-01T09:05:15.004Z,930.41
2019-04-01T09:06:14.954Z,930.48
2019-04-01T09:07:14.919Z,930.44
2019-04-01T09:08:14.854Z,930.45
2019-04-01T09:09:14.816Z,930.45
2019-04-01T09:10:14.780Z,930.48
2019-04-01T09:11:14.725Z,930.47
2019-04-01T09:12:14.667Z,930.46
2019-04-01T09:13:14.642Z,930.50
2019-04-01T09:14:14.586Z,930.50
2019-04-01T09:15:14.527Z,930.51
2019-04-01T09:16:14.501Z,930.57
2019-04-01T09:17:14.447Z,930.62
2019-04-01T09:18:14.396Z,930.57
2019-04-01T09:19:14.354Z,930.63
2019-04-01T09:20:14.295Z,930.65
2019-04-01T09:21:14.257Z,930.64
2019-04-01T09:22:14.211Z,930.67
2019-04-01T09:23:14.181Z,930.63
2019-04-01T09:24:14.123Z,930.60
2019-04-01T09:25:14.077Z,930.61
2019-04-01T09:26:14.017Z,930.60
2019-04-01T09:27:13.983Z,930.62
2019-04-01T09:28:13.934Z,930.64
2019-04-01T09:29:13.878Z,930.60
2019-04-01T09:30:13.853Z,930.65
2019-04-01T09:31:13.793Z,930.63
2019-04-01T09:32:13.747Z,930.62
2019-04-01T09:33:13.702Z,930.62
2019-04-01T09:34:13.659Z,930.64
2019-04-01T09:35:13.613Z,930.68
2019-04-01T09:36:13.573Z,930.67
2019-04-01T09:37:13.507Z,930.69
2019-04-01T09:38:13.479Z,930.69
2019-04-01T09:39:13.437Z,930.75
2019-04-01T09:40:13.382Z,930.70
2019-04-01T09:41:13.758Z,930.76
2019-04-01T09:42:13.292Z,930.72
2019-04-01T09:43:14.294Z,930.70
2019-04-01T09:44:13.211Z,930.75
2019-04-01T09:45:13.159Z,930.71
2019-04-01T09:46:13.093Z,930.72
2019-04-01T09:47:13.045Z,930.73
2019-04-01T09:48:13.012Z,930.73
2019-04-01T09:49:12.974Z,930.76
2019-04-01T09:50:12.921Z,930.74
2019-04-01T09:51:12.862Z,930.80
2019-04-01T09:52:12.821Z,930.83
2019-04-01T09:53:12.790Z,930.85
2019-04-01T09:54:12.738Z,930.91
2019-04-01T09:55:12.691Z,930.93
2019-04-01T09:56:12.631Z,930.98
2019-04-01T09:57:17.906Z,930.98
2019-04-01T09:58:12.542Z,931.01
2019-04-01T09:59:12.507Z,931.03
2019-04-01T10:00:12.460Z,931.07
2019-04-01T10:01:12.424Z,931.04
2019-04-01T10:02:12.392Z,931.04
2019-04-01T10:03:12.363Z,931.06
2019-04-01T10:04:12.286Z,931.06
2019-04-01T10:05:12.219Z,931.03
2019-04-01T10:06:12.210Z,931.03
2019-04-01T10:07:12.129Z,931.01
2019-04-01T10:08:12.090Z,931.04
2019-04-01T10:09:12.057Z,931.04
2019-04-01T10:10:12.007Z,931.03
2019-04-01T10:11:12.833Z,931.05
2019-04-01T10:12:11.916Z,931.06
2019-04-01T10:13:11.876Z,931.05
2019-04-01T10:14:11.821Z,931.07
2019-04-01T10:15:11.764Z,931.09
2019-04-01T10:16:11.740Z,931.09
2019-04-01T10:17:11.706Z,931.08
2019-04-01T10:18:11.646Z,931.10
2019-04-01T10:19:11.664Z,931.11
2019-04-01T10:20:11.574Z,931.04
2019-04-01T10:21:11.529Z,931.09
2019-04-01T10:22:11.470Z,931.14
2019-04-01T10:23:11.413Z,931.18
2019-04-01T10:24:11.372Z,931.19
2019-04-01T10:25:11.336Z,931.21
2019-04-01T10:26:11.277Z,931.22
2019-04-01T10:27:11.241Z,931.25
2019-04-01T10:28:11.196Z,931.27
2019-04-01T10:29:11.143Z,931.25
2019-04-01T10:30:11.092Z,931.21
2019-04-01T10:31:11.062Z,931.24
2019-04-01T10:32:10.999Z,931.27
2019-04-01T10:33:10.952Z,931.29
2019-04-01T10:34:10.917Z,931.23
2019-04-01T10:35:10.878Z,931.34
2019-04-01T10:36:10.821Z,931.37
2019-04-01T10:37:10.800Z,931.38
2019-04-01T10:38:10.757Z,931.35
2019-04-01T10:39:10.705Z,931.36
2019-04-01T10:40:10.669Z,931.31
2019-04-01T10:41:10.618Z,931.37
2019-04-01T10:42:10.571Z,931.42
2019-04-01T10:43:10.535Z,931.40
2019-04-01T10:44:10.494Z,931.45
2019-04-01T10:45:10.447Z,931.48
2019-04-01T10:46:12.233Z,931.45
2019-04-01T10:47:10.415Z,931.50
2019-04-01T10:48:10.383Z,931.53
2019-04-01T10:49:10.310Z,931.53
2019-04-01T10:50:10.297Z,931.54
2019-04-01T10:51:10.324Z,931.56
2019-04-01T10:52:10.181Z,931.57
2019-04-01T10:53:10.185Z,931.54
2019-04-01T10:54:10.149Z,931.55
2019-04-01T10:55:10.102Z,931.56
2019-04-01T10:56:10.095Z,931.60
2019-04-01T10:57:10.091Z,931.57
2019-04-01T10:58:10.004Z,931.57
2019-04-01T10:59:09.996Z,931.59
2019-04-01T11:00:09.996Z,931.59
2019-04-01T11:01:09.891Z,931.58
2019-04-01T11:02:09.963Z,931.56
2019-04-01T11:03:09.828Z,931.58
2019-04-01T11:04:09.764Z,931.61
2019-04-01T11:05:09.772Z,931.63
2019-04-01T11:06:09.698Z,931.64
2019-04-01T11:07:09.690Z,931.63
2019-04-01T11:08:09.680Z,931.64
2019-04-01T11:09:09.675Z,931.69
2019-04-01T11:10:11.649Z,931.63
2019-04-01T11:11:09.504Z,931.63
2019-04-01T11:12:09.470Z,931.60
2019-04-01T11:13:09.430Z,931.65
2019-04-01T11:14:09.393Z,931.57
2019-04-01T11:15:09.357Z,931.53
2019-04-01T11:16:09.294Z,931.54
2019-04-01T11:17:09.269Z,931.55
2019-04-01T11:18:09.233Z,931.59
2019-04-01T11:19:09.336Z,931.59
2019-04-01T11:20:09.139Z,931.57
2019-04-01T11:21:09.124Z,931.56
2019-04-01T11:22:09.062Z,931.58
2019-04-01T11:23:09.034Z,931.62
2019-04-01T11:24:08.980Z,931.61
2019-04-01T11:25:08.961Z,931.64
2019-04-01T11:26:08.918Z,931.64
2019-04-01T11:27:08.860Z,931.63
2019-04-01T11:28:08.829Z,931.66
2019-04-01T11:29:08.805Z,931.65
2019-04-01T11:30:08.747Z,931.66
2019-04-01T11:31:08.706Z,931.66
2019-04-01T11:32:08.688Z,931.64
2019-04-01T11:33:08.648Z,931.68
2019-04-01T11:34:08.584Z,931.66
2019-04-01T11:35:08.565Z,931.71
2019-04-01T11:36:08.526Z,931.70
2019-04-01T11:37:08.532Z,931.71
2019-04-01T11:38:08.447Z,931.69
2019-04-01T11:39:08.388Z,931.72
2019-04-01T11:40:11.501Z,931.76
2019-04-01T11:41:08.274Z,931.75
2019-04-01T11:42:08.247Z,931.76
2019-04-01T11:43:08.234Z,931.78
2019-04-01T11:44:08.174Z,931.72
2019-04-01T11:45:08.112Z,931.81
2019-04-01T11:46:08.104Z,931.81
2019-04-01T11:47:08.074Z,931.80
2019-04-01T11:48:07.992Z,931.79
2019-04-01T11:49:07.971Z,931.81
2019-04-01T11:50:07.964Z,931.81
2019-04-01T11:51:07.852Z,931.80
2019-04-01T11:52:08.869Z,931.83
2019-04-01T11:53:07.753Z,931.82
2019-04-01T11:54:08.299Z,931.82
2019-04-01T11:55:08.918Z,931.82
2019-04-01T11:56:07.633Z,931.81
2019-04-01T11:57:07.590Z,931.79
2019-04-01T11:58:07.563Z,931.76
2019-04-01T11:59:08.519Z,931.80
2019-04-01T12:00:11.497Z,931.79
2019-04-01T12:01:07.431Z,931.77
2019-04-01T12:02:07.377Z,931.77
2019-04-01T12:03:07.341Z,931.78
2019-04-01T12:04:07.278Z,931.84
2019-04-01T12:05:07.283Z,931.76
2019-04-01T12:06:07.202Z,931.79
2019-04-01T12:07:07.161Z,931.73
2019-04-01T12:08:07.113Z,931.76
2019-04-01T12:09:07.072Z,931.77
2019-04-01T12:10:07.681Z,931.81
2019-04-01T12:11:06.986Z,931.81
2019-04-01T12:12:06.965Z,931.84
2019-04-01T12:13:06.884Z,931.78
2019-04-01T12:14:06.843Z,931.79
2019-04-01T12:15:06.821Z,931.77
2019-04-01T12:16:07.137Z,931.80
2019-04-01T12:17:06.724Z,931.80
2019-04-01T12:18:06.687Z,931.77
2019-04-01T12:19:06.639Z,931.83
2019-04-01T12:20:06.588Z,931.76
2019-04-01T12:21:06.543Z,931.77
2019-04-01T12:22:06.512Z,931.80
2019-04-01T12:23:06.466Z,931.72
2019-04-01T12:24:06.408Z,931.73
2019-04-01T12:25:06.361Z,931.73
2019-04-01T12:26:15.029Z,931.75
2019-04-01T12:27:06.287Z,931.77
2019-04-01T12:28:06.251Z,931.76